createdAt,value
2017-07-23T00:00:09.508Z,20.39
2017-07-23T00:01:10.211Z,20.41
2017-07-23T00:02:11.162Z,20.43
2017-07-23T00:03:11.868Z,20.55
2017-07-23T00:04:12.571Z,20.44
2017-07-23T00:05:13.274Z,20.47
2017-07-23T00:06:13.979Z,20.44
2017-07-23T00:07:14.932Z,20.47
2017-07-23T00:08:15.638Z,20.48
2017-07-23T00:09:16.341Z,20.52
2017-07-23T00:10:17.044Z,20.51
2017-07-23T00:11:17.746Z,20.55
2017-07-23T00:12:18.696Z,20.62
2017-07-23T00:13:19.399Z,20.63
2017-07-23T00:14:20.101Z,20.51
2017-07-23T00:15:20.803Z,20.59
2017-07-23T00:16:21.508Z,20.60
2017-07-23T00:17:22.459Z,20.62
2017-07-23T00:18:23.157Z,20.47
2017-07-23T00:19:23.860Z,20.48
2017-07-23T00:20:24.565Z,20.40
2017-07-23T00:21:25.268Z,20.48
2017-07-23T00:22:26.221Z,20.29
2017-07-23T00:23:26.928Z,20.25
2017-07-23T00:24:27.630Z,20.22
2017-07-23T00:25:28.329Z,20.13
2017-07-23T00:26:29.031Z,20.06
2017-07-23T00:27:29.985Z,20.14
2017-07-23T00:28:30.687Z,20.07
2017-07-23T00:29:31.393Z,20.04
2017-07-23T00:30:32.095Z,20.09
2017-07-23T00:31:32.794Z,19.91
2017-07-23T00:32:33.746Z,19.88
2017-07-23T00:33:34.452Z,19.91
2017-07-23T00:34:35.157Z,19.84
2017-07-23T00:35:35.860Z,19.86
2017-07-23T00:36:36.562Z,19.85
2017-07-23T00:37:37.514Z,19.88
2017-07-23T00:38:38.216Z,19.71
2017-07-23T00:39:38.937Z,19.81
2017-07-23T00:40:39.639Z,19.76
2017-07-23T00:41:40.341Z,19.71
2017-07-23T00:42:41.295Z,19.76
2017-07-23T00:43:41.996Z,19.69
2017-07-23T00:44:42.703Z,19.67
2017-07-23T00:45:43.403Z,19.73
2017-07-23T00:46:44.103Z,19.67
2017-07-23T00:47:45.050Z,19.56
2017-07-23T00:48:45.756Z,19.56
2017-07-23T00:49:46.450Z,19.49
2017-07-23T00:50:47.151Z,19.45
2017-07-23T00:51:47.861Z,19.41
2017-07-23T00:52:48.562Z,19.44
2017-07-23T00:53:49.264Z,19.48
2017-07-23T00:54:49.964Z,19.41
2017-07-23T00:55:50.667Z,19.36
2017-07-23T00:56:51.364Z,19.33
2017-07-23T00:57:52.312Z,19.27
2017-07-23T00:58:53.014Z,19.36
2017-07-23T00:59:53.713Z,19.29
2017-07-23T01:00:54.410Z,19.27
2017-07-23T01:01:55.120Z,19.34
2017-07-23T01:02:56.073Z,19.34
2017-07-23T01:03:56.772Z,19.19
2017-07-23T01:04:57.473Z,19.16
2017-07-23T01:05:58.170Z,19.19
2017-07-23T01:06:58.866Z,19.18
2017-07-23T01:07:59.836Z,19.18
2017-07-23T01:09:00.540Z,19.18
2017-07-23T01:10:01.251Z,19.15
2017-07-23T01:11:01.954Z,19.16
2017-07-23T01:12:02.657Z,19.11
2017-07-23T01:13:03.610Z,19.08
2017-07-23T01:14:04.313Z,19.12
2017-07-23T01:15:05.018Z,19.09
2017-07-23T01:16:05.720Z,19.12
2017-07-23T01:17:06.424Z,19.07
2017-07-23T01:18:07.376Z,19.11
2017-07-23T01:19:08.073Z,19.09
2017-07-23T01:20:08.771Z,19.07
2017-07-23T01:21:09.473Z,19.12
2017-07-23T01:22:10.175Z,19.02
2017-07-23T01:23:11.128Z,19.00
2017-07-23T01:24:11.825Z,19.02
2017-07-23T01:25:12.532Z,18.99
2017-07-23T01:26:13.230Z,18.96
2017-07-23T01:27:13.929Z,19.02
2017-07-23T01:28:14.880Z,19.09
2017-07-23T01:29:15.578Z,19.04
2017-07-23T01:30:16.280Z,19.12
2017-07-23T01:31:16.982Z,19.04
2017-07-23T01:32:17.677Z,18.99
2017-07-23T01:33:18.376Z,19.02
2017-07-23T01:34:19.072Z,18.96
2017-07-23T01:35:19.772Z,18.99
2017-07-23T01:36:20.485Z,18.98
2017-07-23T01:37:21.186Z,18.84
2017-07-23T01:38:22.138Z,18.86
2017-07-23T01:39:22.846Z,18.86
2017-07-23T01:40:23.548Z,18.93
2017-07-23T01:41:24.251Z,18.99
2017-07-23T01:42:24.970Z,18.96
2017-07-23T01:43:25.926Z,18.80
2017-07-23T01:44:26.626Z,18.84
2017-07-23T01:45:27.327Z,18.88
2017-07-23T01:46:28.029Z,18.88
2017-07-23T01:47:28.736Z,18.90
2017-07-23T01:48:29.688Z,18.84
2017-07-23T01:49:30.389Z,18.90
2017-07-23T01:50:31.088Z,18.90
2017-07-23T01:51:31.791Z,18.88
2017-07-23T01:52:32.489Z,18.83
2017-07-23T01:53:33.441Z,18.95
2017-07-23T01:54:34.143Z,18.86
2017-07-23T01:55:34.846Z,18.96
2017-07-23T01:56:35.548Z,18.93
2017-07-23T01:57:36.242Z,18.99
2017-07-23T01:58:37.195Z,18.99
2017-07-23T01:59:37.893Z,18.99
2017-07-23T02:00:38.595Z,18.99
2017-07-23T02:01:39.297Z,19.02
2017-07-23T02:02:39.995Z,18.93
2017-07-23T02:03:40.695Z,19.00
2017-07-23T02:04:41.393Z,18.96
2017-07-23T02:05:42.094Z,19.02
2017-07-23T02:06:42.796Z,18.93
2017-07-23T02:07:43.493Z,18.95
2017-07-23T02:08:44.446Z,18.84
2017-07-23T02:09:45.146Z,18.86
2017-07-23T02:10:45.849Z,18.81
2017-07-23T02:11:46.551Z,18.75
2017-07-23T02:12:47.253Z,18.66
2017-07-23T02:13:47.953Z,18.66
2017-07-23T02:14:48.656Z,18.81
2017-07-23T02:15:49.355Z,18.71
2017-07-23T02:16:50.054Z,18.84
2017-07-23T02:17:50.754Z,18.83
2017-07-23T02:18:51.710Z,18.83
2017-07-23T02:19:52.415Z,18.74
2017-07-23T02:20:53.115Z,18.81
2017-07-23T02:21:53.814Z,18.88
2017-07-23T02:22:54.515Z,18.92
2017-07-23T02:23:55.468Z,18.95
2017-07-23T02:24:56.170Z,18.84
2017-07-23T02:25:56.871Z,18.96
2017-07-23T02:26:57.574Z,18.92
2017-07-23T02:27:58.271Z,18.92
2017-07-23T02:28:59.216Z,18.88
2017-07-23T02:29:59.920Z,18.90
2017-07-23T02:31:00.623Z,18.98
2017-07-23T02:32:01.321Z,18.95
2017-07-23T02:33:02.029Z,18.88
2017-07-23T02:34:02.980Z,18.84
2017-07-23T02:35:03.681Z,18.99
2017-07-23T02:36:04.379Z,18.95
2017-07-23T02:37:05.082Z,18.95
2017-07-23T02:38:05.785Z,18.95
2017-07-23T02:39:06.486Z,18.81
2017-07-23T02:40:07.188Z,18.88
2017-07-23T02:41:07.889Z,18.98
2017-07-23T02:42:08.591Z,18.96
2017-07-23T02:43:09.297Z,19.00
2017-07-23T02:44:10.248Z,18.99
2017-07-23T02:45:10.946Z,19.04
2017-07-23T02:46:11.650Z,18.93
2017-07-23T02:47:12.358Z,18.86
2017-07-23T02:48:13.059Z,19.00
2017-07-23T02:49:14.011Z,18.95
2017-07-23T02:50:14.713Z,18.95
2017-07-23T02:51:15.426Z,18.96
2017-07-23T02:52:16.133Z,18.99
2017-07-23T02:53:16.836Z,18.95
2017-07-23T02:54:17.787Z,18.93
2017-07-23T02:55:18.490Z,19.02
2017-07-23T02:56:19.187Z,19.08
2017-07-23T02:57:19.891Z,19.08
2017-07-23T02:58:20.592Z,19.02
2017-07-23T02:59:21.545Z,18.99
2017-07-23T03:00:22.250Z,18.89
2017-07-23T03:01:22.956Z,18.80
2017-07-23T03:02:23.658Z,18.88
2017-07-23T03:03:24.364Z,18.98
2017-07-23T03:04:25.257Z,18.88
2017-07-23T03:05:26.018Z,18.83
2017-07-23T03:06:26.720Z,18.89
2017-07-23T03:07:27.420Z,18.88
2017-07-23T03:08:28.121Z,18.86
2017-07-23T03:09:29.073Z,18.83
2017-07-23T03:10:29.772Z,18.92
2017-07-23T03:11:30.470Z,18.92
2017-07-23T03:12:31.169Z,18.86
2017-07-23T03:13:31.880Z,18.86
2017-07-23T03:14:32.831Z,18.90
2017-07-23T03:15:33.532Z,18.84
2017-07-23T03:16:34.234Z,18.88
2017-07-23T03:17:34.938Z,18.92
2017-07-23T03:18:35.640Z,18.83
2017-07-23T03:19:36.594Z,18.81
2017-07-23T03:20:37.296Z,18.83
2017-07-23T03:21:38.003Z,18.84
2017-07-23T03:22:38.707Z,18.81
2017-07-23T03:23:39.417Z,18.71
2017-07-23T03:24:40.369Z,18.74
2017-07-23T03:25:41.070Z,18.78
2017-07-23T03:26:41.774Z,18.73
2017-07-23T03:27:42.477Z,18.73
2017-07-23T03:28:43.182Z,18.77
2017-07-23T03:29:44.183Z,18.60
2017-07-23T03:30:44.884Z,18.70
2017-07-23T03:31:45.583Z,18.52
2017-07-23T03:32:46.285Z,18.50
2017-07-23T03:33:46.983Z,18.49
2017-07-23T03:34:47.931Z,18.41
2017-07-23T03:35:48.629Z,18.41
2017-07-23T03:36:49.331Z,18.35
2017-07-23T03:37:50.058Z,18.37
2017-07-23T03:38:50.758Z,18.43
2017-07-23T03:39:51.707Z,18.37
2017-07-23T03:40:52.412Z,18.33
2017-07-23T03:41:53.118Z,18.29
2017-07-23T03:42:53.824Z,18.31
2017-07-23T03:43:54.526Z,18.34
2017-07-23T03:44:55.226Z,18.31
2017-07-23T03:45:55.926Z,18.20
2017-07-23T03:46:56.634Z,18.20
2017-07-23T03:47:57.334Z,18.34
2017-07-23T03:48:58.034Z,18.19
2017-07-23T03:49:58.986Z,18.20
2017-07-23T03:50:59.688Z,18.19
2017-07-23T03:52:00.391Z,18.25
2017-07-23T03:53:01.093Z,18.22
2017-07-23T03:54:01.804Z,18.11
2017-07-23T03:55:02.756Z,18.11
2017-07-23T03:56:03.458Z,18.10
2017-07-23T03:57:04.152Z,18.07
2017-07-23T03:58:04.856Z,18.18
2017-07-23T03:59:05.558Z,18.16
2017-07-23T04:00:06.508Z,18.10
2017-07-23T04:01:07.210Z,18.13
2017-07-23T04:02:07.910Z,18.15
2017-07-23T04:03:08.613Z,18.18
2017-07-23T04:04:09.314Z,18.22
2017-07-23T04:05:10.268Z,18.19
2017-07-23T04:06:10.966Z,18.23
2017-07-23T04:07:11.668Z,18.15
2017-07-23T04:08:12.370Z,18.23
2017-07-23T04:09:13.074Z,18.18
2017-07-23T04:10:13.778Z,18.20
2017-07-23T04:11:14.480Z,18.25
2017-07-23T04:12:15.182Z,18.26
2017-07-23T04:13:15.893Z,18.34
2017-07-23T04:14:16.601Z,18.33
2017-07-23T04:15:17.550Z,18.33
2017-07-23T04:16:18.247Z,18.38
2017-07-23T04:17:18.948Z,18.44
2017-07-23T04:18:19.651Z,18.40
2017-07-23T04:19:20.354Z,18.40
2017-07-23T04:20:21.307Z,18.40
2017-07-23T04:21:22.005Z,18.45
2017-07-23T04:22:22.706Z,18.53
2017-07-23T04:23:23.408Z,18.44
2017-07-23T04:24:24.110Z,18.52
2017-07-23T04:25:25.061Z,18.58
2017-07-23T04:26:25.765Z,18.55
2017-07-23T04:27:26.468Z,18.56
2017-07-23T04:28:27.168Z,18.55
2017-07-23T04:29:27.871Z,18.55
2017-07-23T04:30:28.821Z,18.55
2017-07-23T04:31:29.525Z,18.52
2017-07-23T04:32:30.229Z,18.58
2017-07-23T04:33:30.939Z,18.60
2017-07-23T04:34:31.641Z,18.55
2017-07-23T04:35:32.595Z,18.60
2017-07-23T04:36:33.300Z,18.68
2017-07-23T04:37:34.011Z,18.63
2017-07-23T04:38:34.718Z,18.55
2017-07-23T04:39:35.422Z,18.60
2017-07-23T04:40:36.373Z,18.74
2017-07-23T04:41:37.077Z,18.70
2017-07-23T04:42:37.782Z,18.75
2017-07-23T04:43:38.484Z,18.75
2017-07-23T04:44:39.186Z,18.71
2017-07-23T04:45:40.135Z,18.83
2017-07-23T04:46:40.838Z,18.80
2017-07-23T04:47:41.546Z,18.81
2017-07-23T04:48:42.258Z,18.89
2017-07-23T04:49:42.958Z,18.89
2017-07-23T04:50:43.911Z,18.83
2017-07-23T04:51:44.615Z,18.89
2017-07-23T04:52:45.320Z,19.00
2017-07-23T04:53:46.025Z,18.99
2017-07-23T04:54:46.728Z,19.07
2017-07-23T04:55:47.680Z,18.99
2017-07-23T04:56:48.387Z,19.02
2017-07-23T04:57:49.088Z,19.08
2017-07-23T04:58:49.788Z,19.00
2017-07-23T04:59:50.490Z,18.99
2017-07-23T05:00:51.444Z,19.02
2017-07-23T05:01:52.151Z,18.99
2017-07-23T05:02:52.853Z,18.99
2017-07-23T05:03:53.557Z,18.95
2017-07-23T05:04:54.261Z,19.00
2017-07-23T05:05:55.214Z,19.00
2017-07-23T05:06:55.923Z,18.88
2017-07-23T05:07:56.628Z,19.02
2017-07-23T05:08:57.350Z,19.00
2017-07-23T05:09:58.057Z,19.19
2017-07-23T05:10:59.014Z,19.26
2017-07-23T05:11:59.721Z,19.30
2017-07-23T05:13:00.423Z,19.45
2017-07-23T05:14:01.128Z,19.48
2017-07-23T05:15:01.837Z,19.47
2017-07-23T05:16:02.549Z,19.44
2017-07-23T05:17:03.251Z,19.54
2017-07-23T05:18:03.958Z,19.55
2017-07-23T05:19:04.663Z,19.49
2017-07-23T05:20:05.365Z,19.34
2017-07-23T05:21:06.320Z,19.39
2017-07-23T05:22:07.024Z,19.45
2017-07-23T05:23:07.731Z,19.55
2017-07-23T05:24:08.442Z,19.55
2017-07-23T05:25:09.149Z,19.47
2017-07-23T05:26:10.107Z,19.52
2017-07-23T05:27:10.812Z,19.63
2017-07-23T05:28:11.515Z,19.56
2017-07-23T05:29:12.222Z,19.62
2017-07-23T05:30:12.928Z,19.55
2017-07-23T05:31:13.887Z,19.48
2017-07-23T05:32:14.592Z,19.40
2017-07-23T05:33:15.299Z,19.54
2017-07-23T05:34:16.004Z,19.49
2017-07-23T05:35:16.713Z,19.58
2017-07-23T05:36:17.674Z,19.51
2017-07-23T05:37:18.390Z,19.56
2017-07-23T05:38:19.099Z,19.52
2017-07-23T05:39:19.803Z,19.67
2017-07-23T05:40:20.513Z,19.69
2017-07-23T05:41:21.225Z,19.69
2017-07-23T05:42:21.932Z,19.73
2017-07-23T05:43:22.639Z,19.74
2017-07-23T05:44:23.343Z,19.77
2017-07-23T05:45:24.049Z,19.71
2017-07-23T05:46:25.012Z,19.66
2017-07-23T05:47:25.719Z,19.74
2017-07-23T05:48:26.420Z,19.74
2017-07-23T05:49:27.126Z,19.77
2017-07-23T05:50:27.836Z,19.81
2017-07-23T05:51:28.794Z,19.76
2017-07-23T05:52:29.499Z,19.91
2017-07-23T05:53:30.209Z,19.95
2017-07-23T05:54:30.916Z,20.02
2017-07-23T05:55:31.627Z,20.06
2017-07-23T05:56:32.578Z,20.04
2017-07-23T05:57:33.287Z,20.10
2017-07-23T05:58:33.998Z,20.07
2017-07-23T05:59:34.700Z,20.00
2017-07-23T06:00:35.407Z,20.14
2017-07-23T06:01:36.361Z,20.18
2017-07-23T06:02:37.080Z,20.25
2017-07-23T06:03:37.781Z,20.11
2017-07-23T06:04:38.483Z,20.11
2017-07-23T06:05:39.184Z,20.19
2017-07-23T06:06:40.142Z,20.34
2017-07-23T06:07:40.844Z,20.47
2017-07-23T06:08:41.552Z,20.14
2017-07-23T06:09:42.258Z,20.11
2017-07-23T06:10:42.970Z,20.26
2017-07-23T06:11:43.929Z,20.16
2017-07-23T06:12:44.634Z,20.19
2017-07-23T06:13:45.339Z,20.09
2017-07-23T06:14:46.054Z,20.16
2017-07-23T06:15:46.769Z,20.07
2017-07-23T06:16:47.720Z,20.03
2017-07-23T06:17:48.433Z,20.09
2017-07-23T06:18:49.141Z,20.03
2017-07-23T06:19:49.849Z,20.03
2017-07-23T06:20:50.558Z,20.03
2017-07-23T06:21:51.514Z,20.09
2017-07-23T06:22:52.220Z,20.14
2017-07-23T06:23:52.926Z,20.06
2017-07-23T06:24:53.636Z,20.16
2017-07-23T06:25:54.343Z,20.16
2017-07-23T06:26:55.300Z,20.24
2017-07-23T06:27:56.012Z,20.34
2017-07-23T06:28:56.732Z,20.36
2017-07-23T06:29:57.447Z,20.60
2017-07-23T06:30:58.157Z,20.62
2017-07-23T06:31:59.115Z,20.72
2017-07-23T06:32:59.818Z,20.67
2017-07-23T06:34:00.535Z,20.70
2017-07-23T06:35:01.256Z,20.55
2017-07-23T06:36:01.961Z,20.47
2017-07-23T06:37:02.913Z,20.39
2017-07-23T06:38:03.616Z,20.24
2017-07-23T06:39:04.322Z,20.11
2017-07-23T06:40:05.028Z,20.04
2017-07-23T06:41:05.730Z,20.06
2017-07-23T06:42:06.683Z,20.04
2017-07-23T06:43:07.385Z,20.19
2017-07-23T06:44:08.100Z,20.14
2017-07-23T06:45:08.806Z,20.11
2017-07-23T06:46:09.509Z,20.18
2017-07-23T06:47:10.461Z,20.10
2017-07-23T06:48:11.168Z,20.07
2017-07-23T06:49:11.872Z,20.00
2017-07-23T06:50:12.583Z,19.91
2017-07-23T06:51:13.293Z,20.03
2017-07-23T06:52:14.247Z,20.11
2017-07-23T06:53:14.958Z,20.16
2017-07-23T06:54:15.663Z,20.22
2017-07-23T06:55:16.370Z,20.21
2017-07-23T06:56:17.074Z,20.44
2017-07-23T06:57:18.029Z,20.56
2017-07-23T06:58:18.736Z,20.56
2017-07-23T06:59:19.442Z,20.66
2017-07-23T07:00:20.144Z,20.63
2017-07-23T07:01:20.845Z,20.59
2017-07-23T07:02:21.799Z,20.21
2017-07-23T07:03:22.507Z,20.40
2017-07-23T07:04:23.218Z,20.41
2017-07-23T07:05:23.920Z,20.36
2017-07-23T07:06:24.632Z,20.19
2017-07-23T07:07:25.585Z,20.10
2017-07-23T07:08:26.293Z,20.03
2017-07-23T07:09:27.001Z,19.76
2017-07-23T07:10:27.705Z,19.76
2017-07-23T07:11:28.423Z,19.56
2017-07-23T07:12:29.133Z,19.52
2017-07-23T07:13:29.855Z,19.48
2017-07-23T07:14:30.563Z,19.55
2017-07-23T07:15:31.271Z,19.52
2017-07-23T07:16:31.975Z,19.54
2017-07-23T07:17:32.929Z,19.66
2017-07-23T07:18:33.635Z,19.56
2017-07-23T07:19:34.342Z,19.52
2017-07-23T07:20:35.052Z,19.56
2017-07-23T07:21:35.762Z,19.64
2017-07-23T07:22:36.725Z,19.71
2017-07-23T07:23:37.445Z,19.89
2017-07-23T07:24:38.153Z,19.79
2017-07-23T07:25:38.863Z,19.88
2017-07-23T07:26:39.569Z,19.88
2017-07-23T07:27:40.527Z,19.89
2017-07-23T07:28:41.234Z,20.04
2017-07-23T07:29:41.945Z,20.06
2017-07-23T07:30:42.649Z,20.06
2017-07-23T07:31:43.358Z,20.06
2017-07-23T07:32:44.313Z,20.03
2017-07-23T07:33:45.018Z,20.04
2017-07-23T07:34:45.726Z,20.14
2017-07-23T07:35:46.438Z,20.07
2017-07-23T07:36:47.144Z,19.95
2017-07-23T07:37:48.100Z,20.11
2017-07-23T07:38:48.805Z,20.13
2017-07-23T07:39:49.509Z,20.14
2017-07-23T07:40:50.216Z,20.24
2017-07-23T07:41:50.922Z,20.36
2017-07-23T07:42:51.884Z,20.25
2017-07-23T07:43:52.592Z,20.24
2017-07-23T07:44:53.297Z,20.24
2017-07-23T07:45:54.003Z,20.21
2017-07-23T07:46:54.725Z,20.31
2017-07-23T07:47:55.682Z,20.26
2017-07-23T07:48:56.392Z,20.21
2017-07-23T07:49:57.091Z,20.36
2017-07-23T07:50:57.798Z,20.34
2017-07-23T07:51:58.501Z,20.32
2017-07-23T07:52:59.461Z,20.25
2017-07-23T07:54:00.170Z,20.26
2017-07-23T07:55:00.879Z,20.28
2017-07-23T07:56:01.583Z,20.36
2017-07-23T07:57:02.292Z,20.50
2017-07-23T07:58:03.252Z,20.66
2017-07-23T07:59:03.953Z,20.67
2017-07-23T08:00:04.668Z,20.74
2017-07-23T08:01:05.376Z,20.59
2017-07-23T08:02:06.080Z,20.43
2017-07-23T08:03:07.038Z,20.41
2017-07-23T08:04:07.743Z,20.50
2017-07-23T08:05:08.457Z,20.48
2017-07-23T08:06:09.161Z,20.59
2017-07-23T08:07:09.873Z,20.59
2017-07-23T08:08:10.832Z,20.70
2017-07-23T08:09:11.545Z,20.59
2017-07-23T08:10:12.250Z,20.78
2017-07-23T08:11:12.960Z,20.80
2017-07-23T08:12:13.667Z,20.62
2017-07-23T08:13:14.625Z,20.78
2017-07-23T08:14:15.331Z,20.78
2017-07-23T08:15:16.038Z,20.72
2017-07-23T08:16:16.751Z,20.88
2017-07-23T08:17:17.458Z,20.81
2017-07-23T08:18:18.418Z,20.96
2017-07-23T08:19:19.120Z,20.92
2017-07-23T08:20:19.827Z,20.88
2017-07-23T08:21:20.550Z,21.05
2017-07-23T08:22:21.259Z,21.17
2017-07-23T08:23:22.212Z,21.12
2017-07-23T08:24:22.934Z,21.22
2017-07-23T08:25:23.648Z,21.35
2017-07-23T08:26:24.356Z,21.32
2017-07-23T08:27:25.062Z,21.33
2017-07-23T08:28:25.769Z,21.22
2017-07-23T08:29:26.474Z,21.14
2017-07-23T08:30:27.180Z,20.84
2017-07-23T08:31:27.888Z,21.02
2017-07-23T08:32:28.593Z,21.12
2017-07-23T08:33:29.549Z,21.20
2017-07-23T08:34:30.258Z,21.22
2017-07-23T08:35:30.966Z,21.15
2017-07-23T08:36:31.672Z,21.30
2017-07-23T08:37:32.380Z,21.32
2017-07-23T08:38:33.342Z,21.39
2017-07-23T08:39:34.053Z,21.58
2017-07-23T08:40:34.760Z,21.55
2017-07-23T08:41:35.470Z,21.48
2017-07-23T08:42:36.180Z,21.51
2017-07-23T08:43:37.138Z,21.62
2017-07-23T08:44:37.846Z,21.57
2017-07-23T08:45:38.546Z,21.55
2017-07-23T08:46:39.256Z,21.66
2017-07-23T08:47:39.964Z,21.82
2017-07-23T08:48:40.672Z,21.75
2017-07-23T08:49:41.383Z,21.46
2017-07-23T08:50:42.002Z,21.51
2017-07-23T08:51:42.790Z,21.62
2017-07-23T08:52:43.499Z,21.55
2017-07-23T08:53:44.454Z,21.51
2017-07-23T08:54:45.161Z,21.57
2017-07-23T08:55:45.867Z,21.75
2017-07-23T08:56:46.586Z,21.77
2017-07-23T08:57:47.293Z,21.67
2017-07-23T08:58:48.251Z,21.66
2017-07-23T08:59:48.960Z,21.82
2017-07-23T09:00:49.671Z,21.92
2017-07-23T09:01:50.380Z,21.91
2017-07-23T09:02:51.085Z,22.11
2017-07-23T09:03:52.041Z,22.18
2017-07-23T09:04:52.752Z,22.25
2017-07-23T09:05:53.470Z,22.39
2017-07-23T09:06:54.174Z,22.36
2017-07-23T09:07:54.880Z,22.38
2017-07-23T09:08:55.836Z,22.50
2017-07-23T09:09:56.541Z,22.44
2017-07-23T09:10:57.255Z,22.17
2017-07-23T09:11:57.963Z,22.18
2017-07-23T09:12:58.672Z,22.32
2017-07-23T09:13:59.634Z,22.20
2017-07-23T09:15:00.343Z,22.26
2017-07-23T09:16:01.074Z,22.36
2017-07-23T09:17:01.783Z,22.54
2017-07-23T09:18:02.499Z,22.48
2017-07-23T09:19:03.457Z,22.44
2017-07-23T09:20:04.165Z,22.50
2017-07-23T09:21:04.874Z,22.41
2017-07-23T09:22:05.598Z,22.54
2017-07-23T09:23:06.303Z,22.50
2017-07-23T09:24:07.256Z,22.63
2017-07-23T09:25:07.983Z,22.65
2017-07-23T09:26:08.692Z,22.68
2017-07-23T09:27:09.405Z,22.93
2017-07-23T09:28:10.115Z,22.96
2017-07-23T09:29:11.070Z,22.93
2017-07-23T09:30:11.771Z,23.00
2017-07-23T09:31:12.483Z,22.91
2017-07-23T09:32:13.190Z,23.00
2017-07-23T09:33:13.894Z,22.96
2017-07-23T09:34:14.607Z,23.02
2017-07-23T09:35:15.315Z,22.81
2017-07-23T09:36:16.028Z,22.87
2017-07-23T09:37:16.743Z,22.63
2017-07-23T09:38:17.451Z,22.57
2017-07-23T09:39:18.414Z,22.66
2017-07-23T09:40:19.127Z,22.75
2017-07-23T09:41:19.834Z,22.94
2017-07-23T09:42:20.549Z,22.94
2017-07-23T09:43:21.257Z,22.76
2017-07-23T09:44:22.222Z,22.76
2017-07-23T09:45:22.928Z,22.96
2017-07-23T09:46:23.632Z,23.36
2017-07-23T09:47:24.349Z,23.51
2017-07-23T09:48:25.061Z,23.34
2017-07-23T09:49:26.016Z,23.02
2017-07-23T09:50:26.725Z,23.06
2017-07-23T09:51:27.433Z,23.03
2017-07-23T09:52:28.137Z,22.69
2017-07-23T09:53:28.842Z,22.80
2017-07-23T09:54:29.803Z,22.84
2017-07-23T09:55:30.513Z,22.73
2017-07-23T09:56:31.222Z,23.03
2017-07-23T09:57:31.936Z,23.31
2017-07-23T09:58:32.644Z,23.41
2017-07-23T09:59:33.599Z,23.31
2017-07-23T10:00:34.308Z,23.21
2017-07-23T10:01:35.027Z,23.44
2017-07-23T10:02:35.738Z,23.39
2017-07-23T10:03:36.443Z,23.02
2017-07-23T10:04:37.405Z,22.93
2017-07-23T10:05:38.112Z,22.76
2017-07-23T10:06:38.814Z,22.66
2017-07-23T10:07:39.526Z,22.60
2017-07-23T10:08:40.233Z,22.55
2017-07-23T10:09:41.188Z,22.54
2017-07-23T10:10:41.893Z,22.39
2017-07-23T10:11:42.605Z,22.33
2017-07-23T10:12:43.315Z,22.32
2017-07-23T10:13:44.028Z,22.17
2017-07-23T10:14:44.994Z,22.26
2017-07-23T10:15:45.719Z,22.14
2017-07-23T10:16:46.424Z,22.07
2017-07-23T10:17:47.127Z,22.11
2017-07-23T10:18:47.844Z,22.11
2017-07-23T10:19:48.801Z,22.13
2017-07-23T10:20:49.509Z,22.25
2017-07-23T10:21:50.217Z,22.23
2017-07-23T10:22:50.924Z,22.17
2017-07-23T10:23:51.630Z,22.28
2017-07-23T10:24:52.358Z,22.30
2017-07-23T10:25:53.088Z,22.36
2017-07-23T10:26:53.802Z,22.39
2017-07-23T10:27:54.512Z,22.33
2017-07-23T10:28:55.220Z,22.44
2017-07-23T10:29:56.174Z,22.63
2017-07-23T10:30:56.881Z,22.70
2017-07-23T10:31:57.596Z,22.68
2017-07-23T10:32:58.309Z,22.62
2017-07-23T10:33:59.020Z,22.78
2017-07-23T10:34:59.991Z,23.06
2017-07-23T10:36:00.694Z,23.09
2017-07-23T10:37:01.402Z,22.65
2017-07-23T10:38:02.110Z,22.78
2017-07-23T10:39:02.818Z,22.53
2017-07-23T10:40:03.788Z,22.66
2017-07-23T10:41:04.498Z,22.76
2017-07-23T10:42:05.205Z,22.65
2017-07-23T10:43:05.912Z,22.48
2017-07-23T10:44:06.628Z,22.60
2017-07-23T10:45:07.335Z,22.53
2017-07-23T10:46:08.048Z,22.88
2017-07-23T10:47:08.758Z,22.94
2017-07-23T10:48:09.467Z,22.93
2017-07-23T10:49:10.176Z,23.00
2017-07-23T10:50:11.136Z,23.28
2017-07-23T10:51:11.843Z,23.37
2017-07-23T10:52:12.550Z,23.39
2017-07-23T10:53:13.253Z,23.43
2017-07-23T10:54:13.971Z,23.62
2017-07-23T10:55:14.929Z,23.41
2017-07-23T10:56:15.635Z,23.56
2017-07-23T10:57:16.351Z,23.68
2017-07-23T10:58:17.059Z,23.83
2017-07-23T10:59:17.767Z,23.87
2017-07-23T11:00:18.474Z,24.11
2017-07-23T11:01:19.181Z,24.38
2017-07-23T11:02:19.887Z,24.50
2017-07-23T11:03:20.599Z,24.57
2017-07-23T11:04:21.305Z,24.69
2017-07-23T11:05:22.268Z,25.04
2017-07-23T11:06:22.979Z,24.91
2017-07-23T11:07:23.689Z,24.70
2017-07-23T11:08:24.401Z,24.78
2017-07-23T11:09:25.107Z,24.92
2017-07-23T11:10:26.070Z,24.10
2017-07-23T11:11:26.776Z,24.13
2017-07-23T11:12:27.492Z,24.11
2017-07-23T11:13:28.199Z,24.13
2017-07-23T11:14:28.915Z,24.35
2017-07-23T11:15:29.875Z,24.29
2017-07-23T11:16:30.603Z,24.16
2017-07-23T11:17:31.322Z,23.76
2017-07-23T11:18:32.037Z,23.59
2017-07-23T11:19:32.747Z,23.34
2017-07-23T11:20:33.712Z,23.50
2017-07-23T11:21:34.421Z,23.63
2017-07-23T11:22:35.126Z,23.69
2017-07-23T11:23:35.834Z,23.78
2017-07-23T11:24:36.539Z,23.50
2017-07-23T11:25:37.499Z,23.71
2017-07-23T11:26:38.213Z,23.71
2017-07-23T11:27:38.927Z,23.76
2017-07-23T11:28:39.634Z,23.83
2017-07-23T11:29:40.339Z,24.03
2017-07-23T11:30:41.300Z,23.84
2017-07-23T11:31:42.025Z,23.59
2017-07-23T11:32:42.742Z,23.56
2017-07-23T11:33:43.452Z,23.76
2017-07-23T11:34:44.159Z,23.61
2017-07-23T11:35:45.119Z,23.65
2017-07-23T11:36:45.827Z,23.93
2017-07-23T11:37:46.553Z,24.06
2017-07-23T11:38:47.264Z,24.39
2017-07-23T11:39:47.994Z,24.55
2017-07-23T11:40:48.962Z,24.70
2017-07-23T11:41:49.670Z,24.24
2017-07-23T11:42:50.391Z,23.88
2017-07-23T11:43:51.104Z,23.69
2017-07-23T11:44:51.834Z,23.76
2017-07-23T11:45:52.810Z,23.69
2017-07-23T11:46:53.519Z,23.88
2017-07-23T11:47:54.232Z,23.87
2017-07-23T11:48:54.943Z,23.81
2017-07-23T11:49:55.680Z,24.17
2017-07-23T11:50:56.650Z,24.05
2017-07-23T11:51:57.364Z,24.01
2017-07-23T11:52:58.071Z,23.88
2017-07-23T11:53:58.781Z,23.74
2017-07-23T11:54:59.488Z,23.66
2017-07-23T11:56:00.447Z,23.46
2017-07-23T11:57:01.156Z,23.23
2017-07-23T11:58:01.864Z,23.41
2017-07-23T11:59:02.576Z,23.44
2017-07-23T12:00:03.284Z,23.17
2017-07-23T12:01:04.245Z,23.00
2017-07-23T12:02:04.953Z,22.78
2017-07-23T12:03:05.661Z,22.68
2017-07-23T12:04:06.377Z,22.68
2017-07-23T12:05:07.082Z,22.62
2017-07-23T12:06:08.044Z,22.47
2017-07-23T12:07:08.761Z,22.20
2017-07-23T12:08:09.466Z,22.35
2017-07-23T12:09:10.183Z,22.33
2017-07-23T12:10:10.896Z,22.36
2017-07-23T12:11:11.856Z,22.25
2017-07-23T12:12:12.564Z,22.15
2017-07-23T12:13:13.269Z,22.41
2017-07-23T12:14:13.991Z,22.32
2017-07-23T12:15:14.716Z,22.15
2017-07-23T12:16:15.670Z,22.43
2017-07-23T12:17:16.376Z,22.36
2017-07-23T12:18:17.084Z,22.43
2017-07-23T12:19:17.799Z,22.48
2017-07-23T12:20:18.511Z,22.39
2017-07-23T12:21:19.472Z,22.48
2017-07-23T12:22:20.182Z,22.48
2017-07-23T12:23:20.891Z,21.70
2017-07-23T12:24:21.599Z,21.75
2017-07-23T12:25:22.304Z,21.69
2017-07-23T12:26:23.257Z,21.73
2017-07-23T12:27:23.962Z,21.50
2017-07-23T12:28:24.674Z,21.70
2017-07-23T12:29:25.381Z,21.62
2017-07-23T12:30:26.088Z,21.76
2017-07-23T12:31:27.041Z,21.70
2017-07-23T12:32:27.752Z,21.85
2017-07-23T12:33:28.459Z,21.82
2017-07-23T12:34:29.179Z,21.66
2017-07-23T12:35:29.899Z,21.95
2017-07-23T12:36:30.625Z,22.39
2017-07-23T12:37:31.333Z,22.75
2017-07-23T12:38:32.040Z,22.94
2017-07-23T12:39:32.750Z,23.50
2017-07-23T12:40:33.459Z,23.54
2017-07-23T12:41:34.424Z,23.47
2017-07-23T12:42:35.135Z,23.21
2017-07-23T12:43:35.843Z,23.62
2017-07-23T12:44:36.557Z,23.78
2017-07-23T12:45:37.263Z,24.28
2017-07-23T12:46:38.219Z,24.03
2017-07-23T12:47:38.927Z,24.11
2017-07-23T12:48:39.635Z,24.78
2017-07-23T12:49:40.343Z,24.51
2017-07-23T12:50:41.056Z,24.61
2017-07-23T12:51:42.014Z,24.28
2017-07-23T12:52:42.722Z,24.66
2017-07-23T12:53:43.432Z,24.57
2017-07-23T12:54:44.144Z,24.85
2017-07-23T12:55:44.857Z,24.81
2017-07-23T12:56:45.827Z,24.99
2017-07-23T12:57:46.534Z,24.95
2017-07-23T12:58:47.241Z,25.23
2017-07-23T12:59:47.950Z,25.33
2017-07-23T13:00:48.669Z,25.51
2017-07-23T13:01:49.377Z,25.25